sensor_id;sensor_type;location;lat;lon;timestamp;temperature;humidity
36458;DHT22;22480;50.546;12.292;2024-01-07T00:00:07;0.30;99.90
36458;DHT22;22480;50.546;12.292;2024-01-07T00:02:33;0.30;99.90
36458;DHT22;22480;50.546;12.292;2024-01-07T00:04:59;0.30;99.90
36458;DHT22;22480;50.546;12.292;2024-01-07T00:07:24;0.30;99.90
36458;DHT22;22480;50.546;12.292;2024-01-07T00:09:50;0.30;99.90
36458;DHT22;22480;50.546;12.292;2024-01-07T00:12:16;0.20;99.90
36458;DHT22;22480;50.546;12.292;2024-01-07T00:14:42;0.20;99.90
36458;DHT22;22480;50.546;12.292;2024-01-07T00:17:09;0.20;99.90
36458;DHT22;22480;50.546;12.292;2024-01-07T00:19:35;0.20;99.90
36458;DHT22;22480;50.546;12.292;2024-01-07T00:22:03;0.20;99.90
36458;DHT22;22480;50.546;12.292;2024-01-07T00:24:29;0.20;99.90
36458;DHT22;22480;50.546;12.292;2024-01-07T00:26:55;0.10;99.90
36458;DHT22;22480;50.546;12.292;2024-01-07T00:29:21;0.10;99.90
36458;DHT22;22480;50.546;12.292;2024-01-07T00:31:47;0.10;99.90
36458;DHT22;22480;50.546;12.292;2024-01-07T00:34:12;0.10;99.90
36458;DHT22;22480;50.546;12.292;2024-01-07T00:36:38;0.00;99.90
36458;DHT22;22480;50.546;12.292;2024-01-07T00:39:05;0.10;99.90
36458;DHT22;22480;50.546;12.292;2024-01-07T00:41:31;0.00;99.90
36458;DHT22;22480;50.546;12.292;2024-01-07T00:43:56;0.00;99.90
36458;DHT22;22480;50.546;12.292;2024-01-07T00:46:22;-0.10;99.90
36458;DHT22;22480;50.546;12.292;2024-01-07T00:48:48;0.00;99.90
36458;DHT22;22480;50.546;12.292;2024-01-07T00:51:14;-0.10;99.90
36458;DHT22;22480;50.546;12.292;2024-01-07T00:53:39;-0.10;99.90
36458;DHT22;22480;50.546;12.292;2024-01-07T00:56:06;-0.20;99.90
36458;DHT22;22480;50.546;12.292;2024-01-07T00:58:31;-0.20;99.90
36458;DHT22;22480;50.546;12.292;2024-01-07T01:00:57;-0.20;99.90
36458;DHT22;22480;50.546;12.292;2024-01-07T01:03:25;-0.20;99.90
36458;DHT22;22480;50.546;12.292;2024-01-07T01:05:52;-0.20;99.90
36458;DHT22;22480;50.546;12.292;2024-01-07T01:08:18;-0.20;99.90
36458;DHT22;22480;50.546;12.292;2024-01-07T01:10:43;-0.20;99.90
36458;DHT22;22480;50.546;12.292;2024-01-07T01:13:09;-0.30;99.90
36458;DHT22;22480;50.546;12.292;2024-01-07T01:15:36;-0.20;99.90
36458;DHT22;22480;50.546;12.292;2024-01-07T01:18:02;-0.30;99.90
36458;DHT22;22480;50.546;12.292;2024-01-07T01:20:28;-0.30;99.90
36458;DHT22;22480;50.546;12.292;2024-01-07T01:22:53;-0.30;99.90
36458;DHT22;22480;50.546;12.292;2024-01-07T01:25:19;-0.40;99.90
36458;DHT22;22480;50.546;12.292;2024-01-07T01:27:45;-0.40;99.90
36458;DHT22;22480;50.546;12.292;2024-01-07T01:30:11;-0.40;99.90
36458;DHT22;22480;50.546;12.292;2024-01-07T01:32:37;-0.40;99.90
36458;DHT22;22480;50.546;12.292;2024-01-07T01:35:04;-0.40;99.90
36458;DHT22;22480;50.546;12.292;2024-01-07T01:37:30;-0.40;99.90
36458;DHT22;22480;50.546;12.292;2024-01-07T01:39:58;-0.40;99.90
36458;DHT22;22480;50.546;12.292;2024-01-07T01:42:24;-0.40;99.90
36458;DHT22;22480;50.546;12.292;2024-01-07T01:44:50;-0.40;99.90
36458;DHT22;22480;50.546;12.292;2024-01-07T01:47:17;-0.50;99.90
36458;DHT22;22480;50.546;12.292;2024-01-07T01:49:45;-0.50;99.90
36458;DHT22;22480;50.546;12.292;2024-01-07T01:52:12;-0.50;99.90
36458;DHT22;22480;50.546;12.292;2024-01-07T01:54:39;-0.50;99.90
36458;DHT22;22480;50.546;12.292;2024-01-07T01:57:05;-0.50;99.90
36458;DHT22;22480;50.546;12.292;2024-01-07T01:59:32;-0.50;99.90
36458;DHT22;22480;50.546;12.292;2024-01-07T02:01:59;-0.60;99.90
36458;DHT22;22480;50.546;12.292;2024-01-07T02:04:25;-0.60;99.90
36458;DHT22;22480;50.546;12.292;2024-01-07T02:06:51;-0.70;99.90
36458;DHT22;22480;50.546;12.292;2024-01-07T02:09:17;-0.70;99.90
36458;DHT22;22480;50.546;12.292;2024-01-07T02:11:43;-0.70;99.90
36458;DHT22;22480;50.546;12.292;2024-01-07T02:14:09;-0.70;99.90
36458;DHT22;22480;50.546;12.292;2024-01-07T02:16:35;-0.80;99.90
36458;DHT22;22480;50.546;12.292;2024-01-07T02:19:01;-0.80;99.90
36458;DHT22;22480;50.546;12.292;2024-01-07T02:21:26;-0.80;99.90
36458;DHT22;22480;50.546;12.292;2024-01-07T02:23:52;-0.90;99.90
36458;DHT22;22480;50.546;12.292;2024-01-07T02:26:18;-0.90;99.90
36458;DHT22;22480;50.546;12.292;2024-01-07T02:28:43;-1.00;99.90
36458;DHT22;22480;50.546;12.292;2024-01-07T02:31:09;-1.00;99.90
36458;DHT22;22480;50.546;12.292;2024-01-07T02:33:35;-1.00;99.90
36458;DHT22;22480;50.546;12.292;2024-01-07T02:36:01;-1.00;99.90
36458;DHT22;22480;50.546;12.292;2024-01-07T02:38:26;-1.00;99.90
36458;DHT22;22480;50.546;12.292;2024-01-07T02:40:52;-1.10;99.90
36458;DHT22;22480;50.546;12.292;2024-01-07T02:43:18;-1.10;99.90
36458;DHT22;22480;50.546;12.292;2024-01-07T02:45:43;-1.10;99.90
36458;DHT22;22480;50.546;12.292;2024-01-07T02:48:09;-1.10;99.90
36458;DHT22;22480;50.546;12.292;2024-01-07T02:50:35;-1.10;99.90
36458;DHT22;22480;50.546;12.292;2024-01-07T02:53:00;-1.20;99.90
36458;DHT22;22480;50.546;12.292;2024-01-07T02:55:26;-1.20;99.90
36458;DHT22;22480;50.546;12.292;2024-01-07T02:57:52;-1.30;99.90
36458;DHT22;22480;50.546;12.292;2024-01-07T03:00:18;-1.40;99.90
36458;DHT22;22480;50.546;12.292;2024-01-07T03:02:44;-1.40;99.90
36458;DHT22;22480;50.546;12.292;2024-01-07T03:05:09;-1.50;99.90
36458;DHT22;22480;50.546;12.292;2024-01-07T03:07:35;-1.50;99.90
36458;DHT22;22480;50.546;12.292;2024-01-07T03:10:02;-1.50;99.90
36458;DHT22;22480;50.546;12.292;2024-01-07T03:12:28;-1.50;99.90
36458;DHT22;22480;50.546;12.292;2024-01-07T03:14:54;-1.50;99.90
36458;DHT22;22480;50.546;12.292;2024-01-07T03:17:19;-1.50;99.90
36458;DHT22;22480;50.546;12.292;2024-01-07T03:19:46;-1.50;99.90
36458;DHT22;22480;50.546;12.292;2024-01-07T03:22:12;-1.60;99.90
36458;DHT22;22480;50.546;12.292;2024-01-07T03:24:38;-1.60;99.90
36458;DHT22;22480;50.546;12.292;2024-01-07T03:27:04;-1.60;99.90
36458;DHT22;22480;50.546;12.292;2024-01-07T03:29:29;-1.60;99.90
36458;DHT22;22480;50.546;12.292;2024-01-07T03:31:55;-1.60;99.90
36458;DHT22;22480;50.546;12.292;2024-01-07T03:34:21;-1.60;99.90
36458;DHT22;22480;50.546;12.292;2024-01-07T03:36:46;-1.60;99.90
36458;DHT22;22480;50.546;12.292;2024-01-07T03:39:12;-1.70;99.90
36458;DHT22;22480;50.546;12.292;2024-01-07T03:41:38;-1.70;99.90
36458;DHT22;22480;50.546;12.292;2024-01-07T03:44:03;-1.80;99.90
36458;DHT22;22480;50.546;12.292;2024-01-07T03:46:29;-1.80;99.90
36458;DHT22;22480;50.546;12.292;2024-01-07T03:48:55;-1.80;99.90
36458;DHT22;22480;50.546;12.292;2024-01-07T03:51:20;-1.80;99.90
36458;DHT22;22480;50.546;12.292;2024-01-07T03:53:46;-1.80;99.90
36458;DHT22;22480;50.546;12.292;2024-01-07T03:56:12;-1.80;99.90
36458;DHT22;22480;50.546;12.292;2024-01-07T03:58:37;-1.80;99.90
36458;DHT22;22480;50.546;12.292;2024-01-07T04:01:03;-1.80;99.90
36458;DHT22;22480;50.546;12.292;2024-01-07T04:03:29;-1.80;99.90
36458;DHT22;22480;50.546;12.292;2024-01-07T04:05:55;-1.90;99.90
36458;DHT22;22480;50.546;12.292;2024-01-07T04:08:20;-1.90;99.90
36458;DHT22;22480;50.546;12.292;2024-01-07T04:10:46;-1.90;99.90
36458;DHT22;22480;50.546;12.292;2024-01-07T04:13:12;-1.90;99.90
36458;DHT22;22480;50.546;12.292;2024-01-07T04:15:38;-1.90;99.90
36458;DHT22;22480;50.546;12.292;2024-01-07T04:18:04;-2.00;99.90
36458;DHT22;22480;50.546;12.292;2024-01-07T04:20:30;-2.00;99.90
36458;DHT22;22480;50.546;12.292;2024-01-07T04:22:56;-2.00;99.90
36458;DHT22;22480;50.546;12.292;2024-01-07T04:25:23;-2.10;99.90
36458;DHT22;22480;50.546;12.292;2024-01-07T04:27:49;-2.10;99.90
36458;DHT22;22480;50.546;12.292;2024-01-07T04:30:14;-2.10;99.90
36458;DHT22;22480;50.546;12.292;2024-01-07T04:32:40;-2.10;99.90
36458;DHT22;22480;50.546;12.292;2024-01-07T04:35:06;-2.10;99.90
36458;DHT22;22480;50.546;12.292;2024-01-07T04:37:33;-2.10;99.90
36458;DHT22;22480;50.546;12.292;2024-01-07T04:39:58;-2.20;99.90
36458;DHT22;22480;50.546;12.292;2024-01-07T04:42:24;-2.20;99.90
36458;DHT22;22480;50.546;12.292;2024-01-07T04:44:50;-2.20;99.90
36458;DHT22;22480;50.546;12.292;2024-01-07T04:47:26;-2.20;99.90
36458;DHT22;22480;50.546;12.292;2024-01-07T04:49:53;-2.20;99.90
36458;DHT22;22480;50.546;12.292;2024-01-07T04:52:19;-2.20;99.90
36458;DHT22;22480;50.546;12.292;2024-01-07T04:54:45;-2.20;99.90
36458;DHT22;22480;50.546;12.292;2024-01-07T04:57:10;-2.20;99.90
36458;DHT22;22480;50.546;12.292;2024-01-07T04:59:36;-2.20;99.90
36458;DHT22;22480;50.546;12.292;2024-01-07T05:02:03;-2.20;99.90
36458;DHT22;22480;50.546;12.292;2024-01-07T05:04:28;-2.30;99.90
36458;DHT22;22480;50.546;12.292;2024-01-07T05:06:54;-2.30;99.90
36458;DHT22;22480;50.546;12.292;2024-01-07T05:09:20;-2.40;99.90
36458;DHT22;22480;50.546;12.292;2024-01-07T05:11:45;-2.40;99.90
36458;DHT22;22480;50.546;12.292;2024-01-07T05:14:11;-2.40;99.90
36458;DHT22;22480;50.546;12.292;2024-01-07T05:16:37;-2.40;99.90
36458;DHT22;22480;50.546;12.292;2024-01-07T05:19:03;-2.40;99.90
36458;DHT22;22480;50.546;12.292;2024-01-07T05:21:30;-2.40;99.90
36458;DHT22;22480;50.546;12.292;2024-01-07T05:23:55;-2.40;99.90
36458;DHT22;22480;50.546;12.292;2024-01-07T05:26:21;-2.40;99.90
36458;DHT22;22480;50.546;12.292;2024-01-07T05:28:47;-2.50;99.90
36458;DHT22;22480;50.546;12.292;2024-01-07T05:31:19;-2.50;99.90
36458;DHT22;22480;50.546;12.292;2024-01-07T05:33:45;-2.50;99.90
36458;DHT22;22480;50.546;12.292;2024-01-07T05:36:11;-2.50;99.90
36458;DHT22;22480;50.546;12.292;2024-01-07T05:38:37;-2.40;99.90
36458;DHT22;22480;50.546;12.292;2024-01-07T05:41:03;-2.50;99.90
36458;DHT22;22480;50.546;12.292;2024-01-07T05:43:29;-2.50;99.90
36458;DHT22;22480;50.546;12.292;2024-01-07T05:45:54;-2.50;99.90
36458;DHT22;22480;50.546;12.292;2024-01-07T05:48:23;-2.50;99.90
36458;DHT22;22480;50.546;12.292;2024-01-07T05:50:49;-2.50;99.90
36458;DHT22;22480;50.546;12.292;2024-01-07T05:53:16;-2.40;99.90
36458;DHT22;22480;50.546;12.292;2024-01-07T05:55:42;-2.40;99.90
36458;DHT22;22480;50.546;12.292;2024-01-07T05:58:08;-2.50;99.90
36458;DHT22;22480;50.546;12.292;2024-01-07T06:00:34;-2.50;99.90
36458;DHT22;22480;50.546;12.292;2024-01-07T06:02:59;-2.50;99.90
36458;DHT22;22480;50.546;12.292;2024-01-07T06:05:26;-2.60;99.90
36458;DHT22;22480;50.546;12.292;2024-01-07T06:07:52;-2.60;99.90
36458;DHT22;22480;50.546;12.292;2024-01-07T06:10:17;-2.60;99.90
36458;DHT22;22480;50.546;12.292;2024-01-07T06:12:43;-2.70;99.90
36458;DHT22;22480;50.546;12.292;2024-01-07T06:15:09;-2.70;99.90
36458;DHT22;22480;50.546;12.292;2024-01-07T06:17:35;-2.70;99.90
36458;DHT22;22480;50.546;12.292;2024-01-07T06:20:01;-2.70;99.90
36458;DHT22;22480;50.546;12.292;2024-01-07T06:22:26;-2.70;99.90
36458;DHT22;22480;50.546;12.292;2024-01-07T06:24:52;-2.70;99.90
36458;DHT22;22480;50.546;12.292;2024-01-07T06:27:18;-2.60;99.90
36458;DHT22;22480;50.546;12.292;2024-01-07T06:29:43;-2.60;99.90
36458;DHT22;22480;50.546;12.292;2024-01-07T06:32:09;-2.60;99.90
36458;DHT22;22480;50.546;12.292;2024-01-07T06:34:35;-2.70;99.90
36458;DHT22;22480;50.546;12.292;2024-01-07T06:37:01;-2.70;99.90
36458;DHT22;22480;50.546;12.292;2024-01-07T06:39:27;-2.80;99.90
36458;DHT22;22480;50.546;12.292;2024-01-07T06:41:53;-2.80;99.90
36458;DHT22;22480;50.546;12.292;2024-01-07T06:44:19;-2.80;99.90
36458;DHT22;22480;50.546;12.292;2024-01-07T06:46:45;-2.70;99.90
36458;DHT22;22480;50.546;12.292;2024-01-07T06:49:10;-2.70;99.90
36458;DHT22;22480;50.546;12.292;2024-01-07T06:51:38;-2.80;99.90
36458;DHT22;22480;50.546;12.292;2024-01-07T06:54:05;-2.80;99.90
36458;DHT22;22480;50.546;12.292;2024-01-07T06:56:30;-2.80;99.90
36458;DHT22;22480;50.546;12.292;2024-01-07T06:58:56;-2.70;99.90
36458;DHT22;22480;50.546;12.292;2024-01-07T07:01:22;-2.70;99.90
36458;DHT22;22480;50.546;12.292;2024-01-07T07:03:49;-2.70;99.90
36458;DHT22;22480;50.546;12.292;2024-01-07T07:06:16;-2.70;99.90
36458;DHT22;22480;50.546;12.292;2024-01-07T07:08:42;-2.80;99.90
36458;DHT22;22480;50.546;12.292;2024-01-07T07:11:07;-2.90;99.90
36458;DHT22;22480;50.546;12.292;2024-01-07T07:13:33;-2.80;99.90
36458;DHT22;22480;50.546;12.292;2024-01-07T07:15:59;-2.90;99.90
36458;DHT22;22480;50.546;12.292;2024-01-07T07:18:25;-2.90;99.90
36458;DHT22;22480;50.546;12.292;2024-01-07T07:20:51;-3.00;99.90
36458;DHT22;22480;50.546;12.292;2024-01-07T07:23:17;-2.90;99.90
36458;DHT22;22480;50.546;12.292;2024-01-07T07:25:43;-2.90;99.90
36458;DHT22;22480;50.546;12.292;2024-01-07T07:28:08;-3.00;99.90
36458;DHT22;22480;50.546;12.292;2024-01-07T07:30:34;-3.00;99.90
36458;DHT22;22480;50.546;12.292;2024-01-07T07:33:00;-3.00;99.90
36458;DHT22;22480;50.546;12.292;2024-01-07T07:35:25;-2.90;99.90
36458;DHT22;22480;50.546;12.292;2024-01-07T07:37:51;-2.90;99.90
36458;DHT22;22480;50.546;12.292;2024-01-07T07:40:17;-2.90;99.90
36458;DHT22;22480;50.546;12.292;2024-01-07T07:42:43;-2.90;99.90
36458;DHT22;22480;50.546;12.292;2024-01-07T07:45:09;-3.00;99.90
36458;DHT22;22480;50.546;12.292;2024-01-07T07:47:35;-2.90;99.90
36458;DHT22;22480;50.546;12.292;2024-01-07T07:50:00;-2.90;99.90
36458;DHT22;22480;50.546;12.292;2024-01-07T07:52:28;-2.90;99.90
36458;DHT22;22480;50.546;12.292;2024-01-07T07:54:53;-3.00;99.90
36458;DHT22;22480;50.546;12.292;2024-01-07T07:57:20;-3.00;99.90
36458;DHT22;22480;50.546;12.292;2024-01-07T07:59:50;-3.00;99.90
36458;DHT22;22480;50.546;12.292;2024-01-07T08:02:16;-3.00;99.90
36458;DHT22;22480;50.546;12.292;2024-01-07T08:04:42;-3.00;99.90
36458;DHT22;22480;50.546;12.292;2024-01-07T08:07:10;-3.00;99.90
36458;DHT22;22480;50.546;12.292;2024-01-07T08:09:36;-3.00;99.90
36458;DHT22;22480;50.546;12.292;2024-01-07T08:12:05;-3.00;99.90
36458;DHT22;22480;50.546;12.292;2024-01-07T08:14:32;-3.00;99.90
36458;DHT22;22480;50.546;12.292;2024-01-07T08:16:58;-2.90;99.90
36458;DHT22;22480;50.546;12.292;2024-01-07T08:19:24;-2.90;99.90
36458;DHT22;22480;50.546;12.292;2024-01-07T08:21:49;-2.90;99.90
36458;DHT22;22480;50.546;12.292;2024-01-07T08:24:15;-2.90;99.90
36458;DHT22;22480;50.546;12.292;2024-01-07T08:26:43;-2.90;99.90
36458;DHT22;22480;50.546;12.292;2024-01-07T08:29:09;-2.90;99.90
36458;DHT22;22480;50.546;12.292;2024-01-07T08:31:35;-2.90;99.90
36458;DHT22;22480;50.546;12.292;2024-01-07T08:34:01;-2.90;99.90
36458;DHT22;22480;50.546;12.292;2024-01-07T08:36:45;-2.90;99.90
36458;DHT22;22480;50.546;12.292;2024-01-07T08:39:18;-2.90;99.90
36458;DHT22;22480;50.546;12.292;2024-01-07T08:41:50;-3.00;99.90
36458;DHT22;22480;50.546;12.292;2024-01-07T08:44:16;-3.00;99.90
36458;DHT22;22480;50.546;12.292;2024-01-07T08:46:42;-3.00;99.90
36458;DHT22;22480;50.546;12.292;2024-01-07T08:49:11;-3.00;99.90
36458;DHT22;22480;50.546;12.292;2024-01-07T08:51:40;-3.00;99.90
36458;DHT22;22480;50.546;12.292;2024-01-07T08:54:06;-3.10;99.90
36458;DHT22;22480;50.546;12.292;2024-01-07T08:56:32;-3.20;99.90
36458;DHT22;22480;50.546;12.292;2024-01-07T08:58:57;-3.20;99.90
36458;DHT22;22480;50.546;12.292;2024-01-07T09:01:24;-3.20;99.90
36458;DHT22;22480;50.546;12.292;2024-01-07T09:03:50;-3.20;99.90
36458;DHT22;22480;50.546;12.292;2024-01-07T09:06:15;-3.20;99.90
36458;DHT22;22480;50.546;12.292;2024-01-07T09:08:41;-3.20;99.90
36458;DHT22;22480;50.546;12.292;2024-01-07T09:11:08;-3.20;99.90
36458;DHT22;22480;50.546;12.292;2024-01-07T09:13:37;-3.30;99.90
36458;DHT22;22480;50.546;12.292;2024-01-07T09:16:02;-3.30;99.90
36458;DHT22;22480;50.546;12.292;2024-01-07T09:18:28;-3.20;99.90
36458;DHT22;22480;50.546;12.292;2024-01-07T09:20:54;-3.20;99.90
36458;DHT22;22480;50.546;12.292;2024-01-07T09:23:20;-3.20;99.90
36458;DHT22;22480;50.546;12.292;2024-01-07T09:25:45;-3.20;99.90
36458;DHT22;22480;50.546;12.292;2024-01-07T09:28:12;-3.20;99.90
36458;DHT22;22480;50.546;12.292;2024-01-07T09:30:38;-3.10;99.90
36458;DHT22;22480;50.546;12.292;2024-01-07T09:33:04;-3.20;99.90
36458;DHT22;22480;50.546;12.292;2024-01-07T09:35:30;-3.10;99.90
36458;DHT22;22480;50.546;12.292;2024-01-07T09:37:56;-3.10;99.90
36458;DHT22;22480;50.546;12.292;2024-01-07T09:40:22;-3.10;99.90
36458;DHT22;22480;50.546;12.292;2024-01-07T09:42:48;-3.10;99.90
36458;DHT22;22480;50.546;12.292;2024-01-07T09:45:14;-3.20;99.90
36458;DHT22;22480;50.546;12.292;2024-01-07T09:47:41;-3.20;99.90
36458;DHT22;22480;50.546;12.292;2024-01-07T09:50:10;-3.10;99.90
36458;DHT22;22480;50.546;12.292;2024-01-07T09:52:42;-3.10;99.90
36458;DHT22;22480;50.546;12.292;2024-01-07T09:55:09;-3.20;99.90
36458;DHT22;22480;50.546;12.292;2024-01-07T09:57:35;-3.30;99.90
36458;DHT22;22480;50.546;12.292;2024-01-07T10:00:02;-3.30;99.90
36458;DHT22;22480;50.546;12.292;2024-01-07T10:02:37;-3.20;99.90
36458;DHT22;22480;50.546;12.292;2024-01-07T10:05:06;-3.30;99.90
36458;DHT22;22480;50.546;12.292;2024-01-07T10:07:32;-3.40;99.90
36458;DHT22;22480;50.546;12.292;2024-01-07T10:10:09;-3.40;99.90
36458;DHT22;22480;50.546;12.292;2024-01-07T10:12:35;-3.40;99.90
36458;DHT22;22480;50.546;12.292;2024-01-07T10:15:01;-3.40;99.90
36458;DHT22;22480;50.546;12.292;2024-01-07T10:17:27;-3.30;99.90
36458;DHT22;22480;50.546;12.292;2024-01-07T10:19:53;-3.40;99.90
36458;DHT22;22480;50.546;12.292;2024-01-07T10:22:19;-3.40;99.90
36458;DHT22;22480;50.546;12.292;2024-01-07T10:24:45;-3.30;99.90
36458;DHT22;22480;50.546;12.292;2024-01-07T10:27:11;-3.30;99.90
36458;DHT22;22480;50.546;12.292;2024-01-07T10:29:37;-3.40;99.90
36458;DHT22;22480;50.546;12.292;2024-01-07T10:32:05;-3.30;99.90
36458;DHT22;22480;50.546;12.292;2024-01-07T10:34:32;-3.30;99.90
36458;DHT22;22480;50.546;12.292;2024-01-07T10:36:59;-3.40;99.90
36458;DHT22;22480;50.546;12.292;2024-01-07T10:39:26;-3.50;99.90
36458;DHT22;22480;50.546;12.292;2024-01-07T10:41:55;-3.50;99.90
36458;DHT22;22480;50.546;12.292;2024-01-07T10:44:31;-3.50;99.90
36458;DHT22;22480;50.546;12.292;2024-01-07T10:46:57;-3.50;99.90
36458;DHT22;22480;50.546;12.292;2024-01-07T10:49:26;-3.50;99.90
36458;DHT22;22480;50.546;12.292;2024-01-07T10:54:28;-3.60;99.90
36458;DHT22;22480;50.546;12.292;2024-01-07T10:57:36;-3.50;99.90
36458;DHT22;22480;50.546;12.292;2024-01-07T10:59:54;-3.60;99.90
36458;DHT22;22480;50.546;12.292;2024-01-07T11:02:22;-3.60;99.90
36458;DHT22;22480;50.546;12.292;2024-01-07T11:04:54;-3.60;99.90
36458;DHT22;22480;50.546;12.292;2024-01-07T11:10:34;-3.70;99.90
36458;DHT22;22480;50.546;12.292;2024-01-07T11:12:55;-3.60;99.90
36458;DHT22;22480;50.546;12.292;2024-01-07T11:18:21;-3.60;99.90
36458;DHT22;22480;50.546;12.292;2024-01-07T11:20:47;-3.70;99.90
36458;DHT22;22480;50.546;12.292;2024-01-07T11:23:35;-3.70;99.90
36458;DHT22;22480;50.546;12.292;2024-01-07T11:26:06;-3.70;99.90
36458;DHT22;22480;50.546;12.292;2024-01-07T11:28:56;-3.70;99.90
36458;DHT22;22480;50.546;12.292;2024-01-07T11:34:08;-3.80;99.90
36458;DHT22;22480;50.546;12.292;2024-01-07T11:36:37;-3.90;99.90
36458;DHT22;22480;50.546;12.292;2024-01-07T11:39:05;-3.90;99.90
36458;DHT22;22480;50.546;12.292;2024-01-07T11:41:35;-3.90;99.90
36458;DHT22;22480;50.546;12.292;2024-01-07T11:44:02;-3.90;99.90
36458;DHT22;22480;50.546;12.292;2024-01-07T11:46:29;-3.90;99.90
36458;DHT22;22480;50.546;12.292;2024-01-07T11:48:57;-3.90;99.90
36458;DHT22;22480;50.546;12.292;2024-01-07T11:51:28;-3.90;99.90
36458;DHT22;22480;50.546;12.292;2024-01-07T11:53:54;-3.80;99.90
36458;DHT22;22480;50.546;12.292;2024-01-07T11:56:20;-3.80;99.90
36458;DHT22;22480;50.546;12.292;2024-01-07T11:58:46;-3.90;99.90
36458;DHT22;22480;50.546;12.292;2024-01-07T12:01:14;-4.00;99.90
36458;DHT22;22480;50.546;12.292;2024-01-07T12:03:39;-4.00;99.90
36458;DHT22;22480;50.546;12.292;2024-01-07T12:06:07;-4.10;99.90
36458;DHT22;22480;50.546;12.292;2024-01-07T12:08:43;-4.10;99.90
36458;DHT22;22480;50.546;12.292;2024-01-07T12:11:13;-4.10;99.90
36458;DHT22;22480;50.546;12.292;2024-01-07T12:13:40;-4.00;99.90
36458;DHT22;22480;50.546;12.292;2024-01-07T12:16:06;-4.10;99.90
36458;DHT22;22480;50.546;12.292;2024-01-07T12:18:37;-4.10;99.90
36458;DHT22;22480;50.546;12.292;2024-01-07T12:21:06;-4.00;99.90
36458;DHT22;22480;50.546;12.292;2024-01-07T12:23:35;-4.10;99.90
36458;DHT22;22480;50.546;12.292;2024-01-07T12:26:11;-4.10;99.90
36458;DHT22;22480;50.546;12.292;2024-01-07T12:28:37;-4.10;99.90
36458;DHT22;22480;50.546;12.292;2024-01-07T12:31:05;-4.10;99.90
36458;DHT22;22480;50.546;12.292;2024-01-07T12:33:30;-4.10;99.90
36458;DHT22;22480;50.546;12.292;2024-01-07T12:35:57;-4.20;99.90
36458;DHT22;22480;50.546;12.292;2024-01-07T12:38:27;-4.20;99.90
36458;DHT22;22480;50.546;12.292;2024-01-07T12:40:56;-4.20;99.90
36458;DHT22;22480;50.546;12.292;2024-01-07T12:43:22;-4.20;99.90
36458;DHT22;22480;50.546;12.292;2024-01-07T12:45:48;-4.20;99.90
36458;DHT22;22480;50.546;12.292;2024-01-07T12:48:14;-4.20;99.90
36458;DHT22;22480;50.546;12.292;2024-01-07T12:50:40;-4.20;99.90
36458;DHT22;22480;50.546;12.292;2024-01-07T12:53:06;-4.20;99.90
36458;DHT22;22480;50.546;12.292;2024-01-07T12:55:38;-4.20;99.90
36458;DHT22;22480;50.546;12.292;2024-01-07T12:58:04;-4.20;99.90
36458;DHT22;22480;50.546;12.292;2024-01-07T13:00:29;-4.20;99.90
36458;DHT22;22480;50.546;12.292;2024-01-07T13:02:55;-4.20;99.90
36458;DHT22;22480;50.546;12.292;2024-01-07T13:05:27;-4.20;99.90
36458;DHT22;22480;50.546;12.292;2024-01-07T13:07:56;-4.20;99.90
36458;DHT22;22480;50.546;12.292;2024-01-07T13:10:21;-4.20;99.90
36458;DHT22;22480;50.546;12.292;2024-01-07T13:12:47;-4.30;99.90
36458;DHT22;22480;50.546;12.292;2024-01-07T13:15:25;-4.30;99.90
36458;DHT22;22480;50.546;12.292;2024-01-07T13:17:53;-4.20;99.90
36458;DHT22;22480;50.546;12.292;2024-01-07T13:20:19;-4.30;99.90
36458;DHT22;22480;50.546;12.292;2024-01-07T13:22:46;-4.30;99.90
36458;DHT22;22480;50.546;12.292;2024-01-07T13:25:17;-4.30;99.90
36458;DHT22;22480;50.546;12.292;2024-01-07T13:27:44;-4.30;99.90
36458;DHT22;22480;50.546;12.292;2024-01-07T13:30:33;-4.30;99.90
36458;DHT22;22480;50.546;12.292;2024-01-07T13:32:59;-4.40;99.90
36458;DHT22;22480;50.546;12.292;2024-01-07T13:35:30;-4.40;99.90
36458;DHT22;22480;50.546;12.292;2024-01-07T13:37:59;-4.40;99.90
36458;DHT22;22480;50.546;12.292;2024-01-07T13:40:30;-4.40;99.90
36458;DHT22;22480;50.546;12.292;2024-01-07T13:42:56;-4.40;99.90
36458;DHT22;22480;50.546;12.292;2024-01-07T13:45:27;-4.40;99.90
36458;DHT22;22480;50.546;12.292;2024-01-07T13:47:53;-4.40;99.90
36458;DHT22;22480;50.546;12.292;2024-01-07T13:50:19;-4.40;99.90
36458;DHT22;22480;50.546;12.292;2024-01-07T13:52:44;-4.40;99.90
36458;DHT22;22480;50.546;12.292;2024-01-07T13:55:13;-4.40;99.90
36458;DHT22;22480;50.546;12.292;2024-01-07T13:57:45;-4.40;99.90
36458;DHT22;22480;50.546;12.292;2024-01-07T14:00:16;-4.40;99.90
36458;DHT22;22480;50.546;12.292;2024-01-07T14:02:53;-4.40;99.90
36458;DHT22;22480;50.546;12.292;2024-01-07T14:05:21;-4.30;99.90
36458;DHT22;22480;50.546;12.292;2024-01-07T14:07:50;-4.30;99.90
36458;DHT22;22480;50.546;12.292;2024-01-07T14:10:17;-4.30;99.90
36458;DHT22;22480;50.546;12.292;2024-01-07T14:12:44;-4.40;99.90
36458;DHT22;22480;50.546;12.292;2024-01-07T14:15:13;-4.40;99.90
36458;DHT22;22480;50.546;12.292;2024-01-07T14:17:39;-4.40;99.90
36458;DHT22;22480;50.546;12.292;2024-01-07T14:20:06;-4.40;99.90
36458;DHT22;22480;50.546;12.292;2024-01-07T14:22:33;-4.40;99.90
36458;DHT22;22480;50.546;12.292;2024-01-07T14:25:02;-4.40;99.90
36458;DHT22;22480;50.546;12.292;2024-01-07T14:27:32;-4.40;99.90
36458;DHT22;22480;50.546;12.292;2024-01-07T14:29:57;-4.50;99.90
36458;DHT22;22480;50.546;12.292;2024-01-07T14:32:23;-4.50;99.90
36458;DHT22;22480;50.546;12.292;2024-01-07T14:34:49;-4.50;99.90
36458;DHT22;22480;50.546;12.292;2024-01-07T14:37:16;-4.50;99.90
36458;DHT22;22480;50.546;12.292;2024-01-07T14:39:42;-4.50;99.90
36458;DHT22;22480;50.546;12.292;2024-01-07T14:42:08;-4.50;99.90
36458;DHT22;22480;50.546;12.292;2024-01-07T14:44:34;-4.50;99.90
36458;DHT22;22480;50.546;12.292;2024-01-07T14:47:00;-4.50;99.90
36458;DHT22;22480;50.546;12.292;2024-01-07T14:49:26;-4.60;99.90
36458;DHT22;22480;50.546;12.292;2024-01-07T14:51:51;-4.60;99.90
36458;DHT22;22480;50.546;12.292;2024-01-07T14:54:17;-4.60;99.90
36458;DHT22;22480;50.546;12.292;2024-01-07T14:56:43;-4.60;99.90
36458;DHT22;22480;50.546;12.292;2024-01-07T14:59:09;-4.60;99.90
36458;DHT22;22480;50.546;12.292;2024-01-07T15:01:35;-4.60;99.90
36458;DHT22;22480;50.546;12.292;2024-01-07T15:04:00;-4.60;99.90
36458;DHT22;22480;50.546;12.292;2024-01-07T15:06:26;-4.60;99.90
36458;DHT22;22480;50.546;12.292;2024-01-07T15:08:52;-4.50;99.90
36458;DHT22;22480;50.546;12.292;2024-01-07T15:11:24;-4.60;99.90
36458;DHT22;22480;50.546;12.292;2024-01-07T15:13:49;-4.50;99.90
36458;DHT22;22480;50.546;12.292;2024-01-07T15:16:19;-4.50;99.90
36458;DHT22;22480;50.546;12.292;2024-01-07T15:18:47;-4.50;99.90
36458;DHT22;22480;50.546;12.292;2024-01-07T15:21:13;-4.50;99.90
36458;DHT22;22480;50.546;12.292;2024-01-07T15:23:39;-4.50;99.90
36458;DHT22;22480;50.546;12.292;2024-01-07T15:26:04;-4.50;99.90